Time;durP1;ratioP1;P1;durP2;ratioP2;P2;SDS_P1;SDS_P2;PMS_P1;PMS_P2;Temp;Humidity;BMP_temperature;BMP_pressure;BME280_temperature;BME280_humidity;BME280_pressure;Samples;Min_cycle;Max_cycle;Signal;HPM_P1;HPM_P2
2020/12/19 00:01:59;;;;;;;4.18;3.03;;;6.90;82.20;;;;;;5097137;28;20027;-70
2020/12/19 00:04:25;;;;;;;5.53;3.78;;;7.00;81.70;;;;;;5097216;28;20032;-70
2020/12/19 00:06:53;;;;;;;6.38;4.30;;;6.90;81.30;;;;;;5097323;28;20069;-70
2020/12/19 00:09:19;;;;;;;5.85;4.65;;;6.90;81.30;;;;;;5097037;28;20024;-70
2020/12/19 00:11:44;;;;;;;7.78;3.70;;;6.90;81.30;;;;;;5097064;28;20315;-70
2020/12/19 00:14:10;;;;;;;4.75;3.38;;;6.90;81.60;;;;;;5096928;28;20482;-70
2020/12/19 00:16:35;;;;;;;3.83;2.88;;;6.80;81.00;;;;;;5096940;28;20038;-70
2020/12/19 00:19:05;;;;;;;3.28;2.58;;;6.90;79.10;;;;;;5096872;28;20036;-70
2020/12/19 00:21:35;;;;;;;3.75;2.42;;;6.80;78.80;;;;;;5097239;28;20031;-70
2020/12/19 00:24:10;;;;;;;3.50;1.70;;;6.70;78.90;;;;;;5096923;28;20039;-70
2020/12/19 00:26:40;;;;;;;2.65;2.03;;;6.70;79.20;;;;;;5096644;28;20139;-70
2020/12/19 00:29:07;;;;;;;2.65;2.05;;;6.70;78.80;;;;;;5096839;28;20024;-70
2020/12/19 00:31:33;;;;;;;3.10;2.47;;;6.60;78.90;;;;;;5097072;28;20023;-70
2020/12/19 00:34:05;;;;;;;4.93;2.20;;;6.50;79.50;;;;;;5096680;28;20076;-70
2020/12/19 00:36:36;;;;;;;3.00;2.30;;;6.50;79.80;;;;;;5096837;28;20016;-70
2020/12/19 00:39:03;;;;;;;2.92;1.98;;;6.40;80.10;;;;;;5096728;28;20286;-70
2020/12/19 00:41:29;;;;;;;4.43;2.15;;;6.30;80.10;;;;;;5096827;28;20032;-70
2020/12/19 00:43:55;;;;;;;4.93;3.22;;;6.20;80.70;;;;;;5096497;28;20320;-70
2020/12/19 00:46:22;;;;;;;8.38;5.68;;;6.10;81.60;;;;;;5096652;28;20024;-70
2020/12/19 00:48:48;;;;;;;9.63;7.53;;;5.90;82.90;;;;;;5096850;28;20026;-70
2020/12/19 00:51:19;;;;;;;8.25;6.47;;;6.00;85.40;;;;;;5096587;28;20042;-70
2020/12/19 00:53:47;;;;;;;8.02;6.88;;;6.10;85.20;;;;;;5096416;28;20100;-70
2020/12/19 00:56:20;;;;;;;9.98;7.60;;;6.20;84.80;;;;;;5096225;28;20040;-70
2020/12/19 00:58:50;;;;;;;8.27;5.85;;;6.10;84.20;;;;;;5096897;28;20315;-70
2020/12/19 01:01:17;;;;;;;7.60;4.55;;;6.10;83.70;;;;;;5096646;28;20024;-70
2020/12/19 01:03:46;;;;;;;8.32;5.35;;;5.90;83.70;;;;;;5096500;28;20034;-70
2020/12/19 01:06:17;;;;;;;7.25;4.40;;;5.80;84.20;;;;;;5096735;28;20031;-70
2020/12/19 01:08:48;;;;;;;7.38;5.00;;;5.70;83.60;;;;;;5096385;28;20028;-70
2020/12/19 01:11:25;;;;;;;7.70;5.93;;;5.70;83.50;;;;;;5096458;28;20122;-70
2020/12/19 01:13:53;;;;;;;10.10;6.45;;;5.60;84.40;;;;;;5096425;28;20034;-70
2020/12/19 01:16:29;;;;;;;6.47;5.13;;;5.50;85.00;;;;;;5096623;28;20095;-70
2020/12/19 01:18:57;;;;;;;7.63;5.57;;;5.50;85.40;;;;;;5096428;28;20028;-70
2020/12/19 01:21:27;;;;;;;7.55;5.97;;;5.50;85.60;;;;;;5096922;28;20021;-70
2020/12/19 01:23:54;;;;;;;8.07;5.53;;;5.40;86.20;;;;;;5096414;28;20028;-70
2020/12/19 01:26:20;;;;;;;10.55;6.10;;;5.40;86.60;;;;;;5096128;28;20154;-70
2020/12/19 01:28:46;;;;;;;7.35;6.18;;;5.40;87.00;;;;;;5096332;28;20069;-70
2020/12/19 01:31:15;;;;;;;8.23;5.53;;;5.30;87.30;;;;;;5096503;28;20028;-70
2020/12/19 01:33:41;;;;;;;9.43;6.55;;;5.20;87.90;;;;;;5096251;28;20020;-70
2020/12/19 01:36:11;;;;;;;6.60;4.85;;;5.20;87.90;;;;;;5099737;28;20407;-70
2020/12/19 01:38:38;;;;;;;6.45;5.18;;;5.10;88.00;;;;;;5099883;28;20442;-70
2020/12/19 01:41:04;;;;;;;6.88;4.43;;;5.10;88.10;;;;;;5099938;28;20408;-70
2020/12/19 01:43:43;;;;;;;7.00;4.07;;;5.10;87.90;;;;;;5099799;28;20544;-70
2020/12/19 01:46:09;;;;;;;6.22;4.72;;;5.10;87.60;;;;;;5099902;28;20074;-70
2020/12/19 01:48:35;;;;;;;6.25;4.85;;;5.10;87.60;;;;;;5099561;28;20020;-70
2020/12/19 01:51:01;;;;;;;6.88;4.95;;;5.10;87.80;;;;;;5099571;28;20477;-70
2020/12/19 01:53:29;;;;;;;5.70;4.15;;;5.00;88.00;;;;;;5099604;28;20020;-70
2020/12/19 01:55:55;;;;;;;6.13;3.63;;;5.00;87.90;;;;;;5099377;28;20043;-70
2020/12/19 01:58:20;;;;;;;5.50;3.45;;;5.00;87.50;;;;;;5099382;28;20028;-70
2020/12/19 02:00:49;;;;;;;4.32;3.47;;;5.00;87.10;;;;;;5100010;28;20024;-70
2020/12/19 02:03:15;;;;;;;6.78;4.57;;;5.00;86.70;;;;;;5099335;28;20101;-70
2020/12/19 02:05:43;;;;;;;4.07;2.90;;;5.10;85.90;;;;;;5099222;28;20050;-70
2020/12/19 02:08:10;;;;;;;6.55;3.70;;;5.10;85.20;;;;;;5099195;28;20035;-71
2020/12/19 02:10:36;;;;;;;4.72;3.10;;;5.10;85.50;;;;;;5099246;28;20039;-70
2020/12/19 02:13:03;;;;;;;3.40;2.80;;;5.20;85.20;;;;;;5099158;28;20107;-70
2020/12/19 02:15:43;;;;;;;4.63;2.70;;;5.20;84.80;;;;;;5099111;28;20407;-70
2020/12/19 02:18:09;;;;;;;3.55;2.70;;;5.30;84.10;;;;;;5099080;28;20495;-70
2020/12/19 02:20:35;;;;;;;5.30;3.03;;;5.20;84.20;;;;;;5081150;28;20027;-70
2020/12/19 02:23:02;;;;;;;3.38;2.53;;;5.10;84.70;;;;;;5098911;28;20031;-70
2020/12/19 02:25:36;;;;;;;3.83;3.00;;;5.10;84.90;;;;;;5098817;28;20501;-70
2020/12/19 02:28:03;;;;;;;4.78;3.45;;;5.10;85.10;;;;;;5080726;28;20052;-70
2020/12/19 02:30:29;;;;;;;3.28;2.92;;;5.10;86.00;;;;;;5099156;28;20161;-70
2020/12/19 02:32:56;;;;;;;3.42;2.33;;;5.30;85.00;;;;;;5099029;28;20486;-71
2020/12/19 02:35:22;;;;;;;2.75;1.85;;;5.30;83.90;;;;;;5098790;28;20462;-70
2020/12/19 02:37:48;;;;;;;3.13;1.98;;;5.40;83.40;;;;;;5098919;28;20024;-70
2020/12/19 02:40:14;;;;;;;3.80;2.08;;;5.40;82.90;;;;;;5098919;28;20024;-70
2020/12/19 02:42:42;;;;;;;2.42;1.90;;;5.40;82.90;;;;;;5098557;28;20028;-70
2020/12/19 02:45:07;;;;;;;2.88;1.80;;;5.40;82.40;;;;;;5098359;28;20024;-70
2020/12/19 02:47:33;;;;;;;4.80;2.67;;;5.50;82.20;;;;;;5098499;28;20030;-70
2020/12/19 02:49:58;;;;;;;2.72;1.52;;;5.50;82.90;;;;;;5098629;28;20023;-70
2020/12/19 02:52:24;;;;;;;2.92;1.60;;;5.60;82.10;;;;;;5098665;28;20024;-70
2020/12/19 02:54:50;;;;;;;2.22;1.58;;;5.60;81.20;;;;;;5080545;28;20035;-70
2020/12/19 02:57:18;;;;;;;3.08;1.90;;;5.70;80.10;;;;;;5098310;28;20036;-70
2020/12/19 02:59:46;;;;;;;2.30;1.63;;;5.70;80.10;;;;;;5098169;28;20024;-70
2020/12/19 03:02:12;;;;;;;2.83;1.48;;;5.90;79.80;;;;;;5080511;28;20491;-70
2020/12/19 03:04:38;;;;;;;2.20;1.70;;;5.90;79.80;;;;;;5098030;28;20107;-70
2020/12/19 03:07:03;;;;;;;2.03;1.40;;;6.00;80.10;;;;;;5098074;28;20038;-70
2020/12/19 03:09:29;;;;;;;2.35;1.30;;;6.00;79.80;;;;;;5098169;28;20092;-70
2020/12/19 03:11:55;;;;;;;3.03;1.30;;;6.00;79.10;;;;;;5098121;28;20027;-70
2020/12/19 03:14:23;;;;;;;1.98;1.45;;;6.10;78.40;;;;;;5097885;28;20028;-70
2020/12/19 03:16:49;;;;;;;2.38;1.80;;;6.30;77.60;;;;;;5098098;28;20038;-70
2020/12/19 03:19:15;;;;;;;2.28;1.25;;;6.30;78.10;;;;;;5097843;28;20024;-70
2020/12/19 03:21:40;;;;;;;3.08;1.40;;;6.40;77.70;;;;;;5098153;28;20097;-70
2020/12/19 03:24:06;;;;;;;2.28;1.48;;;6.40;78.10;;;;;;5097895;28;20063;-70
2020/12/19 03:26:32;;;;;;;3.03;1.88;;;6.40;78.10;;;;;;5097549;28;20050;-70
2020/12/19 03:28:58;;;;;;;2.20;1.65;;;6.30;78.30;;;;;;5079762;28;20016;-70
2020/12/19 03:31:24;;;;;;;4.63;2.67;;;6.30;79.10;;;;;;5097936;28;20039;-70
2020/12/19 03:33:50;;;;;;;5.70;3.00;;;6.20;81.00;;;;;;5097547;28;20031;-70
2020/12/19 03:36:15;;;;;;;3.03;2.22;;;6.20;81.60;;;;;;5097495;28;20027;-70
2020/12/19 03:38:41;;;;;;;3.28;2.55;;;6.10;81.40;;;;;;5097527;28;20024;-70
2020/12/19 03:41:07;;;;;;;3.80;2.83;;;6.10;81.50;;;;;;5079555;28;20141;-70
2020/12/19 03:43:33;;;;;;;4.97;3.58;;;6.10;82.10;;;;;;5097362;28;20408;-70
2020/12/19 03:45:58;;;;;;;5.88;4.03;;;6.10;82.80;;;;;;5097556;28;20032;-70
2020/12/19 03:48:24;;;;;;;4.32;3.40;;;6.10;83.50;;;;;;5097307;28;20149;-70
2020/12/19 03:50:53;;;;;;;4.72;3.40;;;6.00;83.30;;;;;;5097625;28;20028;-70
2020/12/19 03:53:18;;;;;;;4.10;3.03;;;6.00;83.50;;;;;;5097362;28;20032;-70
2020/12/19 03:55:44;;;;;;;5.07;3.30;;;6.00;83.70;;;;;;5097226;28;20099;-70
2020/12/19 03:58:10;;;;;;;5.82;3.40;;;6.00;83.60;;;;;;5096764;28;20480;-70
2020/12/19 04:00:36;;;;;;;4.53;2.60;;;6.00;83.80;;;;;;5097525;28;20024;-70
2020/12/19 04:03:01;;;;;;;3.70;2.63;;;6.10;83.40;;;;;;5097370;28;20432;-70
2020/12/19 04:05:27;;;;;;;3.95;2.72;;;6.00;83.50;;;;;;5097029;28;20035;-70
2020/12/19 04:07:53;;;;;;;3.25;2.50;;;6.00;83.70;;;;;;5097307;28;20048;-70
2020/12/19 04:10:18;;;;;;;6.07;3.03;;;6.00;83.90;;;;;;5097047;28;20347;-70
2020/12/19 04:12:44;;;;;;;4.32;3.42;;;6.00;84.30;;;;;;5096944;28;20082;-70
2020/12/19 04:15:11;;;;;;;3.38;2.63;;;6.00;84.30;;;;;;5079008;28;20024;-70
2020/12/19 04:17:37;;;;;;;3.80;2.15;;;6.00;84.40;;;;;;5096899;28;20062;-70
2020/12/19 04:20:08;;;;;;;5.05;1.90;;;6.00;83.80;;;;;;5096885;28;20028;-70
2020/12/19 04:22:34;;;;;;;3.17;2.22;;;6.10;83.50;;;;;;5096901;28;20055;-70
2020/12/19 04:25:00;;;;;;;4.18;2.58;;;6.10;83.70;;;;;;5097256;28;20063;-70
2020/12/19 04:27:26;;;;;;;4.15;2.83;;;6.10;83.70;;;;;;5096674;28;20048;-70
2020/12/19 04:29:52;;;;;;;4.20;2.67;;;6.10;83.90;;;;;;5096764;28;20028;-70
2020/12/19 04:32:17;;;;;;;3.80;3.15;;;6.10;84.10;;;;;;5096835;28;20051;-70
2020/12/19 04:34:43;;;;;;;4.93;2.75;;;6.10;84.20;;;;;;5096744;28;20028;-70
2020/12/19 04:37:09;;;;;;;3.45;2.38;;;6.10;84.60;;;;;;5096686;28;20039;-70
2020/12/19 04:39:35;;;;;;;3.25;2.88;;;6.20;84.20;;;;;;5096802;28;20031;-70
2020/12/19 04:42:01;;;;;;;3.38;2.45;;;6.30;84.10;;;;;;5078837;28;20034;-70
2020/12/19 04:44:27;;;;;;;5.10;2.60;;;6.30;84.10;;;;;;5096781;28;20028;-70
2020/12/19 04:46:53;;;;;;;3.45;2.60;;;6.40;83.90;;;;;;5078724;28;20030;-70
2020/12/19 04:49:19;;;;;;;3.22;2.20;;;6.40;84.00;;;;;;5096635;28;20020;-70
2020/12/19 04:51:46;;;;;;;2.75;2.00;;;6.40;83.80;;;;;;5096961;28;20020;-70
2020/12/19 04:54:11;;;;;;;5.25;2.40;;;6.40;83.60;;;;;;5096852;28;20119;-70
2020/12/19 04:56:38;;;;;;;5.07;3.03;;;6.40;83.90;;;;;;5096800;28;20063;-70
2020/12/19 04:59:05;;;;;;;3.20;2.10;;;6.40;83.60;;;;;;5096535;28;20059;-70
2020/12/19 05:01:31;;;;;;;2.78;1.75;;;6.40;82.80;;;;;;5097061;28;20399;-70
2020/12/19 05:03:59;;;;;;;2.22;1.70;;;6.40;82.40;;;;;;5096396;28;20062;-70
2020/12/19 05:06:27;;;;;;;3.17;1.50;;;6.40;81.60;;;;;;5078509;28;20020;-70
2020/12/19 05:08:54;;;;;;;3.60;1.95;;;6.50;81.30;;;;;;5096684;28;20020;-70
2020/12/19 05:11:21;;;;;;;5.70;3.35;;;6.40;81.30;;;;;;5100700;28;20047;-70
2020/12/19 05:13:47;;;;;;;4.10;2.63;;;6.50;82.10;;;;;;5100439;28;20026;-70
2020/12/19 05:16:14;;;;;;;6.28;2.85;;;6.50;82.40;;;;;;5100246;28;20099;-70
2020/12/19 05:18:41;;;;;;;3.40;2.40;;;6.60;81.80;;;;;;5082216;28;20118;-70
2020/12/19 05:21:08;;;;;;;3.47;2.42;;;6.60;82.10;;;;;;5100491;28;20043;-70
2020/12/19 05:23:39;;;;;;;5.28;3.20;;;6.60;82.40;;;;;;5100274;28;20055;-70
2020/12/19 05:26:06;;;;;;;4.07;2.60;;;6.60;83.00;;;;;;5099988;28;20055;-70
2020/12/19 05:28:38;;;;;;;4.30;2.75;;;6.60;83.50;;;;;;5081863;28;20493;-70
2020/12/19 05:31:04;;;;;;;3.78;2.63;;;6.60;83.80;;;;;;5100329;28;20047;-70
2020/12/19 05:33:42;;;;;;;4.10;3.08;;;6.60;83.80;;;;;;5081920;28;20343;-70
2020/12/19 05:36:18;;;;;;;3.88;3.00;;;6.60;83.80;;;;;;5100133;28;20028;-70
2020/12/19 05:38:44;;;;;;;3.83;2.75;;;6.60;84.00;;;;;;5099962;28;20024;-70
2020/12/19 05:41:16;;;;;;;5.60;3.50;;;6.60;83.80;;;;;;5099822;28;20115;-70
2020/12/19 05:43:47;;;;;;;5.53;3.30;;;6.40;83.60;;;;;;5099770;28;20054;-70
2020/12/19 05:46:33;;;;;;;8.30;5.53;;;6.40;83.50;;;;;;5100031;28;20054;-70
2020/12/19 05:49:00;;;;;;;41.38;28.75;;;6.20;84.10;;;;;;5099030;28;20036;-70
2020/12/19 05:51:28;;;;;;;20.67;15.30;;;6.10;84.70;;;;;;5099643;28;20317;-70
2020/12/19 05:54:01;;;;;;;71.80;47.33;;;6.00;84.50;;;;;;5099660;28;20028;-70
2020/12/19 05:56:27;;;;;;;19.67;12.05;;;6.00;83.90;;;;;;5099854;28;20124;-70
2020/12/19 05:58:54;;;;;;;12.70;6.00;;;5.80;84.80;;;;;;5099481;28;20339;-71
2020/12/19 06:01:21;;;;;;;4.13;2.10;;;5.70;84.10;;;;;;5099468;28;20016;-70
2020/12/19 06:03:54;;;;;;;4.95;3.00;;;5.60;83.20;;;;;;5099241;28;20048;-70
2020/12/19 06:06:22;;;;;;;2.67;2.08;;;5.50;83.30;;;;;;5099627;28;20016;-70
2020/12/19 06:08:48;;;;;;;4.10;2.40;;;5.30;83.10;;;;;;5099198;28;20037;-70
2020/12/19 06:11:21;;;;;;;6.35;2.00;;;5.30;83.10;;;;;;5099452;28;20289;-70
2020/12/19 06:13:52;;;;;;;4.03;2.50;;;5.30;83.40;;;;;;5081142;28;20028;-70
2020/12/19 06:16:19;;;;;;;4.75;2.85;;;5.20;83.20;;;;;;5099059;28;20403;-70
2020/12/19 06:19:02;;;;;;;5.22;3.60;;;5.10;83.80;;;;;;5098690;28;20036;-70
2020/12/19 06:21:29;;;;;;;4.32;3.60;;;5.10;85.20;;;;;;5098917;28;20024;-70
2020/12/19 06:23:54;;;;;;;4.20;2.88;;;5.00;85.70;;;;;;5099108;28;20024;-70
2020/12/19 06:26:35;;;;;;;5.43;2.72;;;5.00;85.00;;;;;;5098771;28;20031;-70
2020/12/19 06:29:07;;;;;;;6.38;2.95;;;5.10;85.10;;;;;;5098953;28;20031;-70
2020/12/19 06:31:39;;;;;;;4.75;3.22;;;5.00;85.50;;;;;;5098767;28;20301;-70
2020/12/19 06:34:07;;;;;;;5.28;2.28;;;4.90;85.70;;;;;;5098978;28;20020;-70
2020/12/19 06:36:33;;;;;;;3.40;1.90;;;4.90;85.60;;;;;;5098766;28;20032;-70
2020/12/19 06:39:07;;;;;;;3.42;2.60;;;4.90;85.60;;;;;;5098636;28;20304;-70
2020/12/19 06:41:44;;;;;;;2.65;2.00;;;4.90;85.70;;;;;;5080695;28;20028;-70
2020/12/19 06:44:39;;;;;;;2.45;1.42;;;4.90;85.30;;;;;;5098511;28;20107;-70
2020/12/19 06:47:19;;;;;;;6.68;1.92;;;4.80;84.40;;;;;;5009327;28;20038;-70
2020/12/19 06:49:55;;;;;;;3.38;1.80;;;4.80;84.30;;;;;;5098540;28;20081;-70
2020/12/19 06:52:36;;;;;;;3.97;2.20;;;4.80;84.70;;;;;;5098526;28;20028;-70
2020/12/19 06:55:18;;;;;;;2.38;1.73;;;4.90;84.30;;;;;;5098882;28;20066;-70
2020/12/19 06:57:53;;;;;;;2.70;1.65;;;4.90;83.50;;;;;;5098295;28;20034;-70
2020/12/19 07:00:28;;;;;;;2.65;1.80;;;4.90;83.30;;;;;;5080346;28;20027;-70
2020/12/19 07:03:06;;;;;;;2.13;1.38;;;4.90;84.30;;;;;;5098420;28;20024;-70
2020/12/19 07:06:11;;;;;;;2.85;1.70;;;4.90;83.60;;;;;;5098165;28;20141;-70
2020/12/19 07:08:37;;;;;;;3.40;2.38;;;4.90;83.30;;;;;;5060219;28;20059;-70
2020/12/19 07:12:19;;;;;;;2.72;1.38;;;4.90;83.80;;;;;;5098298;28;20074;-70
2020/12/19 07:14:44;;;;;;;4.10;2.17;;;4.90;83.00;;;;;;5080501;28;20127;-70
2020/12/19 07:17:18;;;;;;;4.05;1.70;;;4.90;83.90;;;;;;5098210;28;20085;-70
2020/12/19 07:19:46;;;;;;;3.00;1.95;;;4.90;84.90;;;;;;5097712;28;20098;-70
2020/12/19 07:22:24;;;;;;;2.85;2.13;;;4.90;85.30;;;;;;5098377;28;20412;-70
2020/12/19 07:25:58;;;;;;;4.22;2.42;;;5.00;85.60;;;;;;5098214;28;20424;-70
2020/12/19 07:28:04;;;;;;;3.65;2.90;;;5.10;85.50;;;;;;4988705;28;20387;-70
2020/12/19 07:30:40;;;;;;;4.50;3.70;;;5.20;85.80;;;;;;4996075;28;20084;-70
2020/12/19 07:33:09;;;;;;;9.02;5.72;;;5.30;86.20;;;;;;5074052;28;20032;-70
2020/12/19 07:35:47;;;;;;;10.40;7.25;;;5.40;86.90;;;;;;5079604;28;20028;-70
2020/12/19 07:38:20;;;;;;;8.07;5.65;;;5.50;87.30;;;;;;5097768;28;20035;-70
2020/12/19 07:40:56;;;;;;;6.03;3.22;;;5.50;86.90;;;;;;5098051;28;20047;-70
2020/12/19 07:43:23;;;;;;;6.77;4.73;;;5.50;85.80;;;;;;5097794;28;20116;-71
2020/12/19 07:45:55;;;;;;;10.95;6.82;;;5.40;86.30;;;;;;5097594;28;20289;-71
2020/12/19 07:48:26;;;;;;;5.60;4.05;;;5.30;87.30;;;;;;5097484;28;20069;-70
2020/12/19 07:50:54;;;;;;;8.77;4.65;;;5.20;86.90;;;;;;5097468;28;20028;-70
2020/12/19 07:53:20;;;;;;;10.93;8.23;;;5.20;87.30;;;;;;5079318;28;20030;-71
2020/12/19 07:55:50;;;;;;;13.77;10.75;;;5.20;87.90;;;;;;5097487;28;20378;-70
2020/12/19 07:58:17;;;;;;;15.30;10.80;;;5.20;88.90;;;;;;5097237;28;20072;-70
2020/12/19 08:01:03;;;;;;;14.80;10.38;;;5.30;89.50;;;;;;5097561;28;20027;-70
2020/12/19 08:03:29;;;;;;;11.20;8.30;;;5.40;89.40;;;;;;5097253;28;20035;-70
2020/12/19 08:05:54;;;;;;;6.82;5.72;;;5.50;88.90;;;;;;5097001;28;20032;-70
2020/12/19 08:08:23;;;;;;;6.45;5.10;;;5.60;87.90;;;;;;5097068;28;20027;-70
2020/12/19 08:10:48;;;;;;;6.15;4.65;;;5.80;88.30;;;;;;5097375;28;20047;-70
2020/12/19 08:13:18;;;;;;;6.85;5.78;;;6.10;87.50;;;;;;5097010;28;20407;-70
2020/12/19 08:15:46;;;;;;;8.43;5.88;;;6.40;86.40;;;;;;5096928;28;20030;-70
2020/12/19 08:18:13;;;;;;;9.15;6.45;;;6.70;86.10;;;;;;5096999;28;20032;-70
2020/12/19 08:20:39;;;;;;;7.00;5.68;;;7.00;85.00;;;;;;5097114;28;20043;-70
2020/12/19 08:23:07;;;;;;;11.32;6.15;;;7.30;83.70;;;;;;5096915;28;20028;-70
2020/12/19 08:25:36;;;;;;;9.30;7.15;;;7.50;82.20;;;;;;5096717;28;20032;-70
2020/12/19 08:28:02;;;;;;;9.68;7.50;;;7.70;83.20;;;;;;5096827;28;20056;-70
2020/12/19 08:30:37;;;;;;;8.38;6.43;;;8.00;81.10;;;;;;5079080;28;20034;-70
2020/12/19 08:33:14;;;;;;;8.05;5.68;;;8.10;80.60;;;;;;5096288;28;20032;-70
2020/12/19 08:35:45;;;;;;;10.95;8.23;;;8.20;80.10;;;;;;5096991;28;20052;-70
2020/12/19 08:38:28;;;;;;;10.55;8.38;;;8.20;78.40;;;;;;5096723;28;20027;-70
2020/12/19 08:41:03;;;;;;;12.38;9.38;;;8.10;78.90;;;;;;5096747;28;20108;-71
2020/12/19 08:43:33;;;;;;;14.18;11.48;;;7.90;79.80;;;;;;5098135;28;20020;-71
2020/12/19 08:46:14;;;;;;;18.30;13.32;;;7.80;79.60;;;;;;5100690;28;20067;-71
2020/12/19 08:48:43;;;;;;;17.38;13.98;;;7.60;80.20;;;;;;5100758;28;20024;-70
2020/12/19 08:51:43;;;;;;;20.42;15.02;;;7.40;82.40;;;;;;5101076;28;20047;-70
2020/12/19 08:54:10;;;;;;;18.85;15.13;;;7.20;83.20;;;;;;5092664;28;20036;-70
2020/12/19 08:56:39;;;;;;;20.23;15.30;;;7.30;83.00;;;;;;5100661;28;20039;-70
2020/12/19 08:59:04;;;;;;;20.58;15.10;;;7.30;83.40;;;;;;5100607;28;20020;-70
2020/12/19 09:01:31;;;;;;;22.90;15.93;;;7.30;82.50;;;;;;5100850;28;20103;-71
2020/12/19 09:04:10;;;;;;;21.60;14.70;;;7.30;82.90;;;;;;5100387;28;20020;-72
2020/12/19 09:06:55;;;;;;;20.58;14.75;;;7.40;82.50;;;;;;5082567;28;20028;-70
2020/12/19 09:09:28;;;;;;;22.15;14.40;;;7.50;82.30;;;;;;5100554;28;20055;-72
2020/12/19 09:12:08;;;;;;;16.75;13.10;;;7.70;81.30;;;;;;5098067;28;20036;-71
2020/12/19 09:14:34;;;;;;;18.95;14.30;;;8.00;80.50;;;;;;5100262;28;20043;-70
2020/12/19 09:17:05;;;;;;;20.17;13.82;;;8.20;80.20;;;;;;5100264;28;20416;-72
2020/12/19 09:19:32;;;;;;;16.17;12.20;;;8.40;78.20;;;;;;5100471;28;20020;-72
2020/12/19 09:22:05;;;;;;;18.25;12.30;;;8.50;77.90;;;;;;5100503;28;20035;-70
2020/12/19 09:24:31;;;;;;;16.35;11.43;;;8.60;78.30;;;;;;5099984;28;20370;-70
2020/12/19 09:26:58;;;;;;;16.95;11.60;;;8.60;78.50;;;;;;5099898;28;20050;-70
2020/12/19 09:29:23;;;;;;;17.00;12.32;;;8.60;77.20;;;;;;5100349;28;20017;-70
2020/12/19 09:32:03;;;;;;;19.00;12.43;;;8.70;77.60;;;;;;5100317;28;20105;-70
2020/12/19 09:34:40;;;;;;;21.02;11.95;;;8.90;77.30;;;;;;5100132;28;20027;-70
2020/12/19 09:37:12;;;;;;;14.77;11.27;;;9.40;77.30;;;;;;5099752;28;20389;-70
2020/12/19 09:39:37;;;;;;;12.68;9.02;;;10.50;74.30;;;;;;5099812;28;20028;-70
2020/12/19 09:42:03;;;;;;;14.27;9.73;;;11.60;69.40;;;;;;5100364;28;20123;-70
2020/12/19 09:44:29;;;;;;;13.95;10.75;;;12.60;67.50;;;;;;5099905;28;20027;-70
2020/12/19 09:46:54;;;;;;;15.00;10.45;;;13.30;64.50;;;;;;5082008;28;20403;-71
2020/12/19 09:49:21;;;;;;;12.02;9.60;;;14.00;61.80;;;;;;5099676;28;20020;-71
2020/12/19 09:51:50;;;;;;;12.55;9.40;;;14.70;60.10;;;;;;5099993;28;20035;-71
2020/12/19 09:57:04;;;;;;;11.65;9.70;;;15.60;58.00;;;;;;5099493;28;20040;-71
2020/12/19 09:59:30;;;;;;;12.77;9.25;;;15.80;58.00;;;;;;5099537;28;20020;-71
2020/12/19 10:01:56;;;;;;;12.93;9.55;;;15.50;57.40;;;;;;5099672;28;20028;-71
2020/12/19 10:04:21;;;;;;;13.23;9.35;;;14.50;59.70;;;;;;5099220;28;20039;-71
2020/12/19 10:06:54;;;;;;;10.88;9.32;;;13.70;61.20;;;;;;5097485;28;20099;-70
2020/12/19 10:09:19;;;;;;;13.20;9.85;;;13.00;62.20;;;;;;5090923;28;20024;-72
2020/12/19 10:11:45;;;;;;;11.85;8.90;;;12.30;63.80;;;;;;5078942;28;20090;-70
2020/12/19 10:14:13;;;;;;;15.88;10.93;;;12.40;63.90;;;;;;5078915;28;20092;-71
2020/12/19 10:16:42;;;;;;;13.35;9.50;;;12.90;63.50;;;;;;5079113;28;20070;-70
2020/12/19 10:19:07;;;;;;;12.00;8.82;;;13.10;61.90;;;;;;5079095;28;20350;-71
2020/12/19 10:21:41;;;;;;;13.43;8.73;;;12.90;62.20;;;;;;5078778;28;20063;-70
2020/12/19 10:24:09;;;;;;;10.13;8.82;;;12.60;62.90;;;;;;5078903;28;20293;-70
2020/12/19 10:26:34;;;;;;;15.30;10.23;;;12.60;62.90;;;;;;5078458;28;20068;-71
2020/12/19 10:29:13;;;;;;;12.07;9.40;;;12.90;62.20;;;;;;5078767;28;20021;-71
2020/12/19 10:31:39;;;;;;;11.63;9.95;;;12.90;62.90;;;;;;5078591;28;20051;-71
2020/12/19 10:34:05;;;;;;;12.18;9.57;;;13.10;62.40;;;;;;5078517;28;20609;-70
2020/12/19 10:36:30;;;;;;;11.93;9.30;;;13.90;60.20;;;;;;5060793;28;20024;-70
2020/12/19 10:39:00;;;;;;;12.02;9.70;;;14.40;59.00;;;;;;5078510;28;20077;-70
2020/12/19 10:41:29;;;;;;;12.88;9.52;;;14.50;58.40;;;;;;5078237;28;20021;-70
2020/12/19 10:44:03;;;;;;;11.05;9.65;;;14.50;59.10;;;;;;5078287;28;20012;-70
2020/12/19 10:46:30;;;;;;;13.27;8.93;;;14.40;59.00;;;;;;5078284;28;20044;-72
2020/12/19 10:48:55;;;;;;;12.90;8.75;;;14.40;59.70;;;;;;5077299;28;20432;-70
2020/12/19 10:51:30;;;;;;;9.85;8.48;;;14.50;57.90;;;;;;5078279;28;20087;-70
2020/12/19 10:54:01;;;;;;;12.02;9.30;;;14.00;58.40;;;;;;5078016;28;20032;-70
2020/12/19 10:56:29;;;;;;;12.57;9.15;;;13.60;60.70;;;;;;5078364;28;20125;-70
2020/12/19 10:58:55;;;;;;;11.43;8.73;;;13.30;60.80;;;;;;5078076;28;20028;-70
2020/12/19 11:01:26;;;;;;;11.23;8.63;;;13.20;60.80;;;;;;5078383;28;20043;-70
2020/12/19 11:04:24;;;;;;;9.75;8.35;;;13.00;61.10;;;;;;5077997;28;20028;-70
2020/12/19 11:07:24;;;;;;;10.73;8.40;;;13.50;60.90;;;;;;5076761;28;20321;-71
2020/12/19 11:09:50;;;;;;;10.13;8.50;;;14.10;61.10;;;;;;5077892;28;20020;-71
2020/12/19 11:12:16;;;;;;;16.08;11.82;;;14.80;58.30;;;;;;5077868;28;20430;-71
2020/12/19 11:14:41;;;;;;;12.27;9.95;;;15.10;57.40;;;;;;5077698;28;20027;-70
2020/12/19 11:17:07;;;;;;;11.38;9.30;;;15.10;57.60;;;;;;5077925;28;20359;-71
2020/12/19 11:19:32;;;;;;;11.73;8.60;;;14.90;58.40;;;;;;5077644;28;20028;-71
2020/12/19 11:21:58;;;;;;;9.98;8.23;;;14.30;59.10;;;;;;5078251;28;20055;-71
2020/12/19 11:24:24;;;;;;;11.73;9.23;;;13.50;60.00;;;;;;5077722;28;20020;-71
2020/12/19 11:26:52;;;;;;;13.02;9.65;;;12.50;62.30;;;;;;5077374;28;20053;-72
2020/12/19 11:29:21;;;;;;;11.75;8.23;;;11.90;64.00;;;;;;5077498;28;20013;-72
2020/12/19 11:31:49;;;;;;;13.95;8.95;;;11.50;65.00;;;;;;5077958;28;20452;-72
2020/12/19 11:34:14;;;;;;;11.95;9.77;;;11.20;66.50;;;;;;5077316;28;20024;-72
2020/12/19 11:36:43;;;;;;;13.35;8.93;;;11.00;67.60;;;;;;5077650;28;20025;-72
2020/12/19 11:39:11;;;;;;;14.55;9.20;;;10.90;68.00;;;;;;5077228;28;20416;-72
2020/12/19 11:41:38;;;;;;;12.38;9.80;;;10.70;68.30;;;;;;5077279;28;20145;-72
2020/12/19 11:44:36;;;;;;;12.70;9.30;;;10.90;68.70;;;;;;5077024;28;20044;-72
2020/12/19 11:47:08;;;;;;;13.40;10.10;;;11.70;68.20;;;;;;5044476;28;20048;-70
2020/12/19 11:49:33;;;;;;;13.48;10.20;;;12.50;64.20;;;;;;5077125;28;20088;-71
2020/12/19 11:52:00;;;;;;;12.52;9.43;;;13.20;62.70;;;;;;5059507;28;20067;-71
2020/12/19 11:54:25;;;;;;;12.32;9.35;;;13.70;60.80;;;;;;5059386;28;20115;-72
2020/12/19 11:56:54;;;;;;;12.55;10.40;;;14.20;60.90;;;;;;5077154;28;20107;-72
2020/12/19 11:59:22;;;;;;;13.15;9.52;;;14.40;59.10;;;;;;5076967;28;20074;-71
2020/12/19 12:01:48;;;;;;;13.55;9.80;;;14.60;58.70;;;;;;5077223;28;20024;-72
2020/12/19 12:04:14;;;;;;;11.48;9.50;;;14.70;59.10;;;;;;5076780;28;20044;-71
2020/12/19 12:06:39;;;;;;;13.18;9.65;;;14.90;59.70;;;;;;5076903;28;20020;-71
2020/12/19 12:09:06;;;;;;;15.85;10.63;;;14.70;59.10;;;;;;5077068;28;20416;-70
2020/12/19 12:11:33;;;;;;;11.75;9.65;;;14.80;59.40;;;;;;5076807;28;20029;-71
2020/12/19 12:14:00;;;;;;;8.73;7.82;;;14.80;59.40;;;;;;5076759;28;20104;-70
2020/12/19 12:16:26;;;;;;;9.77;8.32;;;15.00;58.40;;;;;;5076810;28;20105;-70
2020/12/19 12:18:56;;;;;;;12.13;8.93;;;14.90;57.70;;;;;;5076636;28;20024;-71
2020/12/19 12:21:21;;;;;;;11.45;8.35;;;14.90;57.30;;;;;;5076913;28;20020;-71
2020/12/19 12:23:53;;;;;;;10.40;8.50;;;14.80;57.10;;;;;;5076585;28;20033;-70
2020/12/19 12:26:23;;;;;;;12.30;8.85;;;14.70;57.40;;;;;;5076527;28;20035;-70
2020/12/19 12:28:49;;;;;;;12.35;9.15;;;14.70;58.50;;;;;;5076840;28;20029;-71
2020/12/19 12:31:23;;;;;;;11.32;8.75;;;14.40;58.50;;;;;;5076980;28;20021;-71
2020/12/19 12:33:51;;;;;;;14.07;9.68;;;13.90;59.00;;;;;;5076516;28;20035;-70
2020/12/19 12:36:24;;;;;;;9.98;8.35;;;13.30;60.40;;;;;;5076616;28;20056;-70
2020/12/19 12:38:53;;;;;;;10.93;8.57;;;12.70;62.50;;;;;;5076554;28;20111;-71
2020/12/19 12:41:22;;;;;;;9.38;7.60;;;12.20;64.00;;;;;;5076770;28;20024;-72
2020/12/19 12:43:50;;;;;;;11.63;8.90;;;11.70;64.80;;;;;;5076528;28;20074;-72
2020/12/19 12:46:32;;;;;;;14.30;8.75;;;11.40;67.30;;;;;;5076396;28;20025;-71
2020/12/19 12:49:01;;;;;;;9.88;8.65;;;10.90;68.50;;;;;;5076534;28;20103;-72
2020/12/19 12:51:27;;;;;;;11.95;8.80;;;10.60;68.70;;;;;;5076705;28;20290;-72
2020/12/19 12:53:52;;;;;;;11.40;8.80;;;10.20;69.80;;;;;;5076467;28;20162;-72
2020/12/19 12:56:23;;;;;;;11.63;9.50;;;10.00;70.30;;;;;;5076295;28;20123;-72
2020/12/19 12:58:53;;;;;;;11.85;9.00;;;9.90;70.40;;;;;;5076511;28;20032;-72
2020/12/19 13:01:19;;;;;;;12.93;9.35;;;9.70;71.50;;;;;;5076455;28;20025;-72
2020/12/19 13:03:44;;;;;;;11.93;9.90;;;9.60;72.40;;;;;;5076228;28;20033;-71
2020/12/19 13:06:11;;;;;;;12.05;10.20;;;9.50;72.10;;;;;;5076421;28;20150;-71